createdAt,value
2019-03-16T00:02:20.798Z,98924.86
2019-03-16T00:04:48.435Z,98935.89
2019-03-16T00:07:16.075Z,98941.78
2019-03-16T00:09:43.707Z,98959.84
2019-03-16T00:12:11.355Z,98980.29
2019-03-16T00:14:38.998Z,98984.47
2019-03-16T00:17:06.654Z,98984.47
2019-03-16T00:19:34.375Z,98989.20
2019-03-16T00:22:02.007Z,98974.72
2019-03-16T00:24:29.651Z,98954.97
2019-03-16T00:26:57.297Z,98974.87
2019-03-16T00:29:24.949Z,98983.69
2019-03-16T00:31:52.599Z,98975.88
2019-03-16T00:34:20.247Z,98972.06
2019-03-16T00:36:47.875Z,98978.90
2019-03-16T00:39:15.519Z,98985.60
2019-03-16T00:41:43.168Z,98992.55
2019-03-16T00:44:10.806Z,98996.72
2019-03-16T00:46:38.442Z,98992.39
2019-03-16T00:49:06.087Z,98998.38
2019-03-16T00:51:33.767Z,99004.02
2019-03-16T00:54:01.428Z,99011.33
2019-03-16T00:56:29.076Z,99015.50
2019-03-16T00:58:56.719Z,99016.16
2019-03-16T01:01:24.357Z,99013.03
2019-03-16T01:03:52.010Z,99022.70
2019-03-16T01:06:19.657Z,99014.16
2019-03-16T01:08:47.286Z,99015.81
2019-03-16T01:11:14.927Z,99022.25
2019-03-16T01:13:42.567Z,99023.59
2019-03-16T01:16:10.204Z,99032.27
2019-03-16T01:18:37.857Z,99039.69
2019-03-16T01:21:05.520Z,99038.30
2019-03-16T01:23:33.191Z,99019.56
2019-03-16T01:26:00.828Z,99033.05
2019-03-16T01:28:28.473Z,99033.97
2019-03-16T01:30:56.115Z,99040.00
2019-03-16T01:33:23.763Z,99040.41
2019-03-16T01:35:51.402Z,99045.55
2019-03-16T01:38:19.090Z,99054.67
2019-03-16T01:40:46.777Z,99049.72
2019-03-16T01:43:14.415Z,99048.37
2019-03-16T01:45:42.132Z,99052.59
2019-03-16T01:48:09.771Z,99057.53
2019-03-16T01:50:37.418Z,99052.50
2019-03-16T01:53:05.068Z,99058.91
2019-03-16T01:55:32.718Z,99068.22
2019-03-16T01:58:00.354Z,99067.98
2019-03-16T02:00:27.990Z,99050.84
2019-03-16T02:02:56.046Z,99059.27
2019-03-16T02:05:23.853Z,99067.34
2019-03-16T02:07:51.503Z,99056.59
2019-03-16T02:10:19.327Z,99068.28
2019-03-16T02:12:46.979Z,99070.27
2019-03-16T02:15:14.632Z,99071.62
2019-03-16T02:17:42.274Z,99078.97
2019-03-16T02:20:09.908Z,99087.63
2019-03-16T02:22:37.550Z,99087.58
2019-03-16T02:25:05.195Z,99086.12
2019-03-16T02:27:32.831Z,99085.77
2019-03-16T02:30:00.584Z,99095.69
2019-03-16T02:32:28.301Z,99105.58
2019-03-16T02:34:55.964Z,99110.20
2019-03-16T02:40:01.910Z,99117.31
2019-03-16T02:42:29.743Z,99121.64
2019-03-16T02:44:57.452Z,99129.72
2019-03-16T02:47:25.157Z,99132.75
2019-03-16T02:49:52.782Z,99139.24
2019-03-16T02:52:20.474Z,99145.22
2019-03-16T02:54:48.112Z,99139.61
2019-03-16T02:57:15.761Z,99140.98
2019-03-16T02:59:43.425Z,99136.61
2019-03-16T03:02:11.055Z,99139.66
2019-03-16T03:04:38.691Z,99134.80
2019-03-16T03:07:06.360Z,99133.86
2019-03-16T03:09:34.069Z,99138.14
2019-03-16T03:12:01.696Z,99114.87
2019-03-16T03:14:29.345Z,99137.62
2019-03-16T03:16:56.980Z,99141.41
2019-03-16T03:19:24.631Z,99138.20
2019-03-16T03:21:52.279Z,99143.87
2019-03-16T03:24:19.944Z,99142.93
2019-03-16T03:26:47.580Z,99148.53
2019-03-16T03:29:15.232Z,99145.16
2019-03-16T03:31:42.874Z,99161.45
2019-03-16T03:34:10.517Z,99164.51
2019-03-16T03:36:38.151Z,99173.91
2019-03-16T03:39:05.803Z,99180.80
2019-03-16T03:41:33.447Z,99191.27
2019-03-16T03:44:01.092Z,99186.91
2019-03-16T03:46:32.145Z,99172.73
2019-03-16T03:48:58.076Z,99189.75
2019-03-16T03:51:25.708Z,99201.66
2019-03-16T03:53:53.348Z,99211.27
2019-03-16T03:56:20.988Z,99208.28
2019-03-16T03:58:48.632Z,99217.01
2019-03-16T04:01:16.365Z,99221.40
2019-03-16T04:03:43.995Z,99202.86
2019-03-16T04:06:11.639Z,99218.88
2019-03-16T04:08:39.281Z,99227.64
2019-03-16T04:11:06.933Z,99220.51
2019-03-16T04:13:34.572Z,99237.52
2019-03-16T04:16:02.243Z,99228.00
2019-03-16T04:18:29.932Z,99236.01
2019-03-16T04:20:57.636Z,99241.98
2019-03-16T04:23:25.268Z,99233.09
2019-03-16T04:25:52.913Z,99237.39
2019-03-16T04:28:20.572Z,99241.03
2019-03-16T04:30:48.212Z,99244.48
2019-03-16T04:33:15.862Z,99248.09
2019-03-16T04:35:43.508Z,99250.31
2019-03-16T04:38:11.156Z,99258.48
2019-03-16T04:40:38.807Z,99271.77
2019-03-16T04:43:06.446Z,99278.73
2019-03-16T04:45:34.090Z,99289.71
2019-03-16T04:48:01.719Z,99285.50
2019-03-16T04:50:29.356Z,99290.64
2019-03-16T04:52:56.996Z,99297.68
2019-03-16T04:55:24.639Z,99300.59
2019-03-16T04:57:52.286Z,99298.59
2019-03-16T05:00:19.935Z,99308.75
2019-03-16T05:02:47.582Z,99319.75
2019-03-16T05:05:15.222Z,99316.92
2019-03-16T05:07:42.862Z,99312.61
2019-03-16T05:10:10.498Z,99310.03
2019-03-16T05:12:38.130Z,99313.86
2019-03-16T05:15:05.787Z,99309.47
2019-03-16T05:17:33.430Z,99312.30
2019-03-16T05:20:01.072Z,99317.66
2019-03-16T05:22:28.719Z,99330.25
2019-03-16T05:24:56.371Z,99333.23
2019-03-16T05:27:24.006Z,99329.84
2019-03-16T05:29:51.638Z,99338.32
2019-03-16T05:32:19.285Z,99335.00
2019-03-16T05:34:56.556Z,99346.22
2019-03-16T05:37:16.259Z,99347.45
2019-03-16T05:39:43.891Z,99351.23
2019-03-16T05:42:11.532Z,99348.33
2019-03-16T05:44:39.178Z,99353.87
2019-03-16T05:47:06.820Z,99357.88
2019-03-16T05:49:34.464Z,99348.66
2019-03-16T05:52:02.090Z,99364.58
2019-03-16T05:54:29.739Z,99360.45
2019-03-16T05:56:57.389Z,99364.23
2019-03-16T05:59:25.026Z,99369.16
2019-03-16T06:01:52.691Z,99376.34
2019-03-16T06:04:20.335Z,99377.16
2019-03-16T06:06:47.977Z,99385.34
2019-03-16T06:09:15.657Z,99381.69
2019-03-16T06:11:43.360Z,99386.84
2019-03-16T06:14:11.006Z,99381.08
2019-03-16T06:16:38.670Z,99378.56
2019-03-16T06:19:06.379Z,99385.76
2019-03-16T06:21:34.014Z,99394.84
2019-03-16T06:24:01.647Z,99394.77
2019-03-16T06:26:29.303Z,99389.69
2019-03-16T06:28:56.934Z,99396.98
2019-03-16T06:31:24.583Z,99400.38
2019-03-16T06:33:52.221Z,99405.23
2019-03-16T06:36:19.877Z,99404.92
2019-03-16T06:38:47.520Z,99410.53
2019-03-16T06:41:15.163Z,99408.78
2019-03-16T06:43:42.802Z,99423.92
2019-03-16T06:46:10.442Z,99432.08
2019-03-16T06:48:38.085Z,99431.53
2019-03-16T06:51:05.719Z,99432.33
2019-03-16T06:53:33.354Z,99432.39
2019-03-16T06:56:01.017Z,99435.38
2019-03-16T06:58:28.660Z,99436.73
2019-03-16T07:00:56.314Z,99439.03
2019-03-16T07:03:23.956Z,99442.61
2019-03-16T07:05:51.599Z,99438.30
2019-03-16T07:08:19.228Z,99441.06
2019-03-16T07:10:46.885Z,99441.00
2019-03-16T07:13:14.514Z,99442.81
2019-03-16T07:15:42.155Z,99436.37
2019-03-16T07:18:09.791Z,99442.94
2019-03-16T07:20:37.431Z,99439.92
2019-03-16T07:23:05.086Z,99446.95
2019-03-16T07:25:32.722Z,99451.76
2019-03-16T07:28:00.354Z,99437.26
2019-03-16T07:30:28.631Z,99442.52
2019-03-16T07:32:56.263Z,99449.44
2019-03-16T07:35:23.939Z,99449.44
2019-03-16T07:37:51.580Z,99446.05
2019-03-16T07:40:19.245Z,99450.50
2019-03-16T07:42:46.883Z,99448.05
2019-03-16T07:45:14.520Z,99454.52
2019-03-16T07:47:42.162Z,99450.70
2019-03-16T07:50:09.786Z,99457.86
2019-03-16T07:52:37.469Z,99464.94
2019-03-16T07:55:05.093Z,99465.70
2019-03-16T07:57:40.139Z,99469.05
2019-03-16T08:00:02.200Z,99469.39
2019-03-16T08:02:29.841Z,99455.98
2019-03-16T08:04:57.476Z,99462.06
2019-03-16T08:07:25.109Z,99453.92
2019-03-16T08:09:52.760Z,99459.19
2019-03-16T08:12:20.392Z,99463.07
2019-03-16T08:14:48.031Z,99465.47
2019-03-16T08:17:15.667Z,99463.92
2019-03-16T08:19:43.303Z,99470.50
2019-03-16T08:22:10.964Z,99475.84
2019-03-16T08:24:38.735Z,99473.45
2019-03-16T08:27:07.664Z,99465.11
2019-03-16T08:29:35.522Z,99470.27
2019-03-16T08:32:03.166Z,99481.41
2019-03-16T08:34:30.869Z,99487.56
2019-03-16T08:36:58.644Z,99490.25
2019-03-16T08:39:26.574Z,99490.25
2019-03-16T08:41:54.229Z,99487.39
2019-03-16T08:44:21.873Z,99487.72
2019-03-16T08:46:49.518Z,99491.42
2019-03-16T08:49:17.160Z,99496.52
2019-03-16T08:51:44.802Z,99488.48
2019-03-16T08:54:12.766Z,99503.50
2019-03-16T08:56:40.395Z,99498.34
2019-03-16T08:59:08.027Z,99513.00
2019-03-16T09:01:35.665Z,99527.97
2019-03-16T09:04:03.303Z,99526.30
2019-03-16T09:06:30.955Z,99534.69
2019-03-16T09:08:58.687Z,99543.04
2019-03-16T09:11:26.315Z,99548.87
2019-03-16T09:13:54.179Z,99552.61
2019-03-16T09:16:22.040Z,99552.15
2019-03-16T09:18:49.672Z,99559.23
2019-03-16T09:21:17.314Z,99580.63
2019-03-16T09:23:45.276Z,99577.06
2019-03-16T09:26:13.040Z,99586.82
2019-03-16T09:28:40.716Z,99602.61
2019-03-16T09:31:08.430Z,99598.38
2019-03-16T09:33:36.095Z,99613.65
2019-03-16T09:36:03.798Z,99619.25
2019-03-16T09:38:31.435Z,99620.94
2019-03-16T09:40:59.075Z,99623.25
2019-03-16T09:43:26.725Z,99622.52
2019-03-16T09:45:54.364Z,99628.90
2019-03-16T09:48:22.703Z,99627.14
2019-03-16T09:50:50.557Z,99630.82
2019-03-16T09:53:18.208Z,99626.29
2019-03-16T09:55:45.904Z,99626.39
2019-03-16T09:58:13.542Z,99630.52
2019-03-16T10:00:41.202Z,99636.84
2019-03-16T10:03:08.859Z,99631.78
2019-03-16T10:05:36.499Z,99626.88
2019-03-16T10:08:04.144Z,99632.88
2019-03-16T10:10:31.783Z,99633.97
2019-03-16T10:12:59.840Z,99629.98
2019-03-16T10:15:27.567Z,99629.81
2019-03-16T10:17:55.215Z,99631.30
2019-03-16T10:20:22.847Z,99629.73
2019-03-16T10:22:50.539Z,99632.75
2019-03-16T10:25:18.184Z,99626.77
2019-03-16T10:27:45.830Z,99629.09
2019-03-16T10:30:13.478Z,99628.96
2019-03-16T10:32:41.102Z,99629.83
2019-03-16T10:35:08.802Z,99629.00
2019-03-16T10:37:36.484Z,99628.83
2019-03-16T10:40:04.164Z,99627.83
2019-03-16T10:42:31.802Z,99619.13
2019-03-16T10:44:59.442Z,99620.55
2019-03-16T10:47:27.106Z,99616.98
2019-03-16T10:49:54.754Z,99614.60
2019-03-16T10:52:22.433Z,99619.27
2019-03-16T10:54:50.051Z,99618.91
2019-03-16T10:57:17.706Z,99626.23
2019-03-16T10:59:45.351Z,99621.70
2019-03-16T11:02:12.993Z,99622.28
2019-03-16T11:04:40.654Z,99622.16
2019-03-16T11:07:08.305Z,99615.65
2019-03-16T11:09:35.939Z,99621.97
2019-03-16T11:12:03.589Z,99609.37
2019-03-16T11:14:31.224Z,99609.88
2019-03-16T11:16:58.867Z,99613.44
2019-03-16T11:19:26.500Z,99603.50
2019-03-16T11:21:54.168Z,99604.42
2019-03-16T11:24:21.812Z,99599.00
2019-03-16T11:26:49.469Z,99599.44
2019-03-16T11:29:17.108Z,99596.81
2019-03-16T11:31:44.749Z,99596.87
2019-03-16T11:34:12.398Z,99596.86
2019-03-16T11:36:40.042Z,99593.64
2019-03-16T11:39:07.702Z,99585.05
2019-03-16T11:41:35.363Z,99577.55
2019-03-16T11:44:03.004Z,99568.84
2019-03-16T11:46:30.671Z,99578.28
2019-03-16T11:48:58.371Z,99573.56
2019-03-16T11:51:26.016Z,99564.66
2019-03-16T11:53:53.664Z,99560.61
2019-03-16T11:56:21.423Z,99557.45
2019-03-16T11:58:49.157Z,99547.38
2019-03-16T12:01:16.790Z,99540.57
2019-03-16T12:03:44.461Z,99538.81
2019-03-16T12:06:12.101Z,99542.44
2019-03-16T12:08:39.914Z,99533.94
2019-03-16T12:11:07.561Z,99518.08
2019-03-16T12:13:35.230Z,99519.08
2019-03-16T12:16:02.970Z,99513.97
2019-03-16T12:18:30.612Z,99501.89
2019-03-16T12:20:58.243Z,99504.54
2019-03-16T12:23:25.891Z,99505.13
2019-03-16T12:25:53.680Z,99492.26
2019-03-16T12:28:21.342Z,99488.39
2019-03-16T12:30:49.071Z,99481.22
2019-03-16T12:33:16.735Z,99478.02
2019-03-16T12:35:44.372Z,99467.37
2019-03-16T12:38:12.025Z,99474.75
2019-03-16T12:40:39.667Z,99467.43
2019-03-16T12:43:07.315Z,99460.90
2019-03-16T12:45:34.951Z,99453.80
2019-03-16T12:48:02.613Z,99462.38
2019-03-16T12:50:30.287Z,99454.64
2019-03-16T12:52:57.956Z,99443.78
2019-03-16T12:55:25.615Z,99441.91
2019-03-16T12:57:53.281Z,99429.71
2019-03-16T13:00:20.958Z,99431.34
2019-03-16T13:02:48.678Z,99415.55
2019-03-16T13:05:16.327Z,99404.84
2019-03-16T13:07:44.001Z,99424.94
2019-03-16T13:10:11.649Z,99435.23
2019-03-16T13:12:39.391Z,99412.27
2019-03-16T13:15:07.097Z,99395.43
2019-03-16T13:17:34.737Z,99394.42
2019-03-16T13:20:02.375Z,99385.82
2019-03-16T13:22:30.104Z,99383.98
2019-03-16T13:24:57.763Z,99356.37
2019-03-16T13:27:25.400Z,99365.00
2019-03-16T13:29:58.850Z,99365.94
2019-03-16T13:32:22.430Z,99375.30
2019-03-16T13:34:50.080Z,99355.60
2019-03-16T13:37:17.720Z,99352.59
2019-03-16T13:39:45.364Z,99353.36
2019-03-16T13:42:13.012Z,99318.67
2019-03-16T13:44:40.691Z,99318.49
2019-03-16T13:47:08.350Z,99313.41
2019-03-16T13:49:36.017Z,99314.22
2019-03-16T13:52:03.671Z,99306.18
2019-03-16T13:54:31.709Z,99297.30
2019-03-16T13:56:59.345Z,99304.65
2019-03-16T13:59:27.059Z,99305.78
2019-03-16T14:01:54.713Z,99296.61
2019-03-16T14:04:22.409Z,99306.28
2019-03-16T14:06:50.043Z,99298.44
2019-03-16T14:09:17.693Z,99286.87
2019-03-16T14:11:45.335Z,99284.92
2019-03-16T14:14:12.986Z,99282.16
2019-03-16T14:16:40.624Z,99279.31
2019-03-16T14:19:08.287Z,99274.97
2019-03-16T14:21:36.206Z,99269.41
2019-03-16T14:24:03.855Z,99273.17
2019-03-16T14:26:31.531Z,99267.73
2019-03-16T14:28:59.269Z,99267.66
2019-03-16T14:31:26.957Z,99250.42
2019-03-16T14:33:54.606Z,99257.08
2019-03-16T14:36:22.337Z,99247.66
2019-03-16T14:38:50.176Z,99252.05
2019-03-16T14:41:17.816Z,99244.32
2019-03-16T14:43:45.450Z,99237.14
2019-03-16T14:46:13.186Z,99226.59
2019-03-16T14:48:40.820Z,99226.59
2019-03-16T14:51:08.505Z,99237.20
2019-03-16T14:53:36.151Z,99239.92
2019-03-16T14:56:03.797Z,99239.36
2019-03-16T14:58:31.435Z,99234.47
2019-03-16T15:00:59.087Z,99230.10
2019-03-16T15:03:26.738Z,99230.52
2019-03-16T15:05:54.380Z,99225.77
2019-03-16T15:08:22.022Z,99219.33
2019-03-16T15:10:49.725Z,99211.71
2019-03-16T15:13:17.391Z,99213.11
2019-03-16T15:15:45.041Z,99212.81
2019-03-16T15:18:12.684Z,99206.38
2019-03-16T15:20:40.356Z,99206.05
2019-03-16T15:23:07.996Z,99196.54
2019-03-16T15:25:35.641Z,99199.12
2019-03-16T15:28:03.275Z,99203.53
2019-03-16T15:30:30.923Z,99204.39
2019-03-16T15:33:00.363Z,99209.66
2019-03-16T15:35:27.937Z,99199.76
2019-03-16T15:37:55.622Z,99188.02
2019-03-16T15:40:23.267Z,99196.78
2019-03-16T15:42:50.911Z,99190.23
2019-03-16T15:45:18.580Z,99190.70
2019-03-16T15:47:46.306Z,99195.80
2019-03-16T15:50:13.954Z,99188.58
2019-03-16T15:52:41.595Z,99184.38
2019-03-16T15:55:09.231Z,99169.01
2019-03-16T15:57:36.872Z,99168.27
2019-03-16T16:00:04.518Z,99170.87
2019-03-16T16:02:32.171Z,99168.72
2019-03-16T16:04:59.857Z,99163.09
2019-03-16T16:07:27.503Z,99162.57
2019-03-16T16:09:55.149Z,99167.85
2019-03-16T16:12:22.793Z,99158.89
2019-03-16T16:14:50.473Z,99158.89
2019-03-16T16:17:18.180Z,99168.45
2019-03-16T16:19:45.852Z,99163.53
2019-03-16T16:22:13.535Z,99165.69
2019-03-16T16:24:41.189Z,99173.65
2019-03-16T16:27:08.841Z,99173.65
2019-03-16T16:29:36.486Z,99176.88
2019-03-16T16:32:04.132Z,99172.47
2019-03-16T16:34:31.829Z,99181.06
2019-03-16T16:36:59.487Z,99171.91
2019-03-16T16:39:27.128Z,99171.20
2019-03-16T16:41:54.778Z,99170.28
2019-03-16T16:44:22.433Z,99181.53
2019-03-16T16:46:50.076Z,99186.83
2019-03-16T16:49:17.715Z,99186.27
2019-03-16T16:51:45.380Z,99181.58
2019-03-16T16:54:13.032Z,99191.01
2019-03-16T16:56:40.676Z,99185.77
2019-03-16T16:59:08.327Z,99184.52
2019-03-16T17:01:35.963Z,99188.48
2019-03-16T17:04:03.617Z,99192.76
2019-03-16T17:06:31.279Z,99202.23
2019-03-16T17:08:58.916Z,99199.79
2019-03-16T17:11:26.581Z,99208.36
2019-03-16T17:13:54.294Z,99200.22
2019-03-16T17:16:21.942Z,99203.18
2019-03-16T17:18:49.582Z,99202.63
2019-03-16T17:21:17.230Z,99201.03
2019-03-16T17:23:44.861Z,99201.11
2019-03-16T17:26:12.518Z,99199.53
2019-03-16T17:28:40.164Z,99187.06
2019-03-16T17:31:07.809Z,99186.23
2019-03-16T17:33:35.442Z,99178.50
2019-03-16T17:36:03.093Z,99187.61
2019-03-16T17:38:30.743Z,99194.83
2019-03-16T17:40:58.391Z,99195.72
2019-03-16T17:43:26.036Z,99197.76
2019-03-16T17:45:53.679Z,99206.09
2019-03-16T17:48:21.326Z,99204.77
2019-03-16T17:50:48.985Z,99200.59
2019-03-16T17:53:16.642Z,99202.66
2019-03-16T17:55:44.295Z,99208.27
2019-03-16T17:58:11.947Z,99201.91
2019-03-16T18:00:39.583Z,99200.52
2019-03-16T18:03:07.219Z,99211.64
2019-03-16T18:05:34.874Z,99209.40
2019-03-16T18:08:02.514Z,99212.14
2019-03-16T18:10:30.151Z,99204.27
2019-03-16T18:12:57.815Z,99205.70
2019-03-16T18:15:25.500Z,99207.34
2019-03-16T18:17:53.239Z,99204.25
2019-03-16T18:20:20.884Z,99197.86
2019-03-16T18:22:48.543Z,99203.03
2019-03-16T18:25:16.178Z,99206.39
2019-03-16T18:27:43.810Z,99198.97
2019-03-16T18:30:11.451Z,99199.42
2019-03-16T18:32:39.086Z,99205.52
2019-03-16T18:35:06.722Z,99202.06
2019-03-16T18:37:34.369Z,99202.52
2019-03-16T18:40:02.011Z,99208.50
2019-03-16T18:42:29.671Z,99209.91
2019-03-16T18:44:57.299Z,99207.29
2019-03-16T18:47:24.943Z,99208.13
2019-03-16T18:49:52.590Z,99204.56
2019-03-16T18:52:20.235Z,99199.44
2019-03-16T18:54:47.884Z,99197.76
2019-03-16T18:57:15.566Z,99203.33
2019-03-16T18:59:43.293Z,99195.52
2019-03-16T19:02:20.157Z,99197.67
2019-03-16T19:04:40.387Z,99204.23
2019-03-16T19:07:08.034Z,99198.91
2019-03-16T19:09:35.667Z,99202.94
2019-03-16T19:12:03.323Z,99194.98
2019-03-16T19:14:30.957Z,99210.16
2019-03-16T19:16:58.592Z,99206.86
2019-03-16T19:19:26.230Z,99196.38
2019-03-16T19:21:53.896Z,99209.31
2019-03-16T19:24:21.615Z,99205.78
2019-03-16T19:26:49.251Z,99208.45
2019-03-16T19:29:16.893Z,99199.34
2019-03-16T19:31:44.537Z,99199.34
2019-03-16T19:34:12.179Z,99204.52
2019-03-16T19:36:39.826Z,99198.47
2019-03-16T19:39:07.472Z,99207.09
2019-03-16T19:41:35.129Z,99202.74
2019-03-16T19:44:02.764Z,99203.61
2019-03-16T19:46:30.398Z,99207.09
2019-03-16T19:48:58.041Z,99212.22
2019-03-16T19:51:25.687Z,99208.87
2019-03-16T19:53:53.337Z,99206.22
2019-03-16T19:56:20.990Z,99208.78
2019-03-16T19:58:59.986Z,99202.80
2019-03-16T20:01:18.023Z,99202.80
2019-03-16T20:03:45.675Z,99200.13
2019-03-16T20:06:25.076Z,99202.27
2019-03-16T20:08:42.675Z,99207.58
2019-03-16T20:11:10.327Z,99209.23
2019-03-16T20:13:37.970Z,99213.00
2019-03-16T20:16:05.623Z,99215.64
2019-03-16T20:18:33.290Z,99219.50
2019-03-16T20:21:00.949Z,99213.88
2019-03-16T20:23:28.656Z,99226.92
2019-03-16T20:25:56.270Z,99220.45
2019-03-16T20:28:23.910Z,99207.07
2019-03-16T20:30:51.550Z,99207.09
2019-03-16T20:33:19.194Z,99207.09
2019-03-16T20:35:47.081Z,99213.06
2019-03-16T20:38:14.798Z,99207.05
2019-03-16T20:40:42.567Z,99202.27
2019-03-16T20:43:10.201Z,99196.67
2019-03-16T20:45:37.907Z,99206.20
2019-03-16T20:48:05.674Z,99200.07
2019-03-16T20:50:33.365Z,99203.48
2019-03-16T20:53:01.009Z,99202.48
2019-03-16T20:55:28.657Z,99208.05
2019-03-16T20:57:56.331Z,99197.20
2019-03-16T21:00:23.966Z,99197.20
2019-03-16T21:02:51.627Z,99195.30
2019-03-16T21:05:19.268Z,99195.30
2019-03-16T21:07:47.133Z,99207.53
2019-03-16T21:10:14.903Z,99209.25
2019-03-16T21:12:42.539Z,99207.59
2019-03-16T21:15:10.178Z,99205.38
2019-03-16T21:17:37.858Z,99206.63
2019-03-16T21:20:05.516Z,99199.42
2019-03-16T21:22:36.337Z,99204.98
2019-03-16T21:25:02.512Z,99206.72
2019-03-16T21:27:30.257Z,99197.61
2019-03-16T21:29:57.893Z,99200.17
2019-03-16T21:32:25.531Z,99199.88
2019-03-16T21:34:53.174Z,99196.77
2019-03-16T21:37:20.831Z,99202.39
2019-03-16T21:39:48.479Z,99208.37
2019-03-16T21:42:16.125Z,99200.11
2019-03-16T21:44:43.769Z,99194.55
2019-03-16T21:47:11.412Z,99187.99
2019-03-16T21:49:39.056Z,99189.70
2019-03-16T21:52:06.711Z,99180.20
2019-03-16T21:54:34.354Z,99177.63
2019-03-16T21:57:02.070Z,99175.25
2019-03-16T21:59:29.927Z,99172.99
2019-03-16T22:01:57.574Z,99177.66
2019-03-16T22:04:25.217Z,99179.33
2019-03-16T22:06:52.867Z,99188.73
2019-03-16T22:09:20.526Z,99195.16
2019-03-16T22:11:48.176Z,99196.91
2019-03-16T22:14:15.826Z,99197.46
2019-03-16T22:16:43.463Z,99194.48
2019-03-16T22:19:11.113Z,99198.75
2019-03-16T22:21:38.742Z,99194.29
2019-03-16T22:24:06.409Z,99188.12
2019-03-16T22:26:34.134Z,99189.41
2019-03-16T22:29:01.792Z,99183.72
2019-03-16T22:31:29.435Z,99172.52
2019-03-16T22:33:57.257Z,99171.78
2019-03-16T22:36:24.958Z,99168.25
2019-03-16T22:38:52.616Z,99175.13
2019-03-16T22:41:20.262Z,99178.17
2019-03-16T22:43:47.920Z,99176.88
2019-03-16T22:46:15.587Z,99168.32
2019-03-16T22:48:43.227Z,99169.64
2019-03-16T22:51:10.874Z,99172.23
2019-03-16T22:53:38.543Z,99172.36
2019-03-16T22:56:06.174Z,99173.48
2019-03-16T22:58:33.823Z,99166.58
2019-03-16T23:01:01.495Z,99176.11
2019-03-16T23:03:29.175Z,99174.91
2019-03-16T23:05:56.869Z,99175.72
2019-03-16T23:08:24.524Z,99171.52
2019-03-16T23:10:52.165Z,99175.66
2019-03-16T23:13:19.807Z,99171.26
2019-03-16T23:15:47.429Z,99166.97
2019-03-16T23:18:15.078Z,99169.90
2019-03-16T23:20:42.724Z,99167.73
2019-03-16T23:23:10.379Z,99166.48
2019-03-16T23:25:38.027Z,99150.52
2019-03-16T23:28:05.697Z,99151.78
2019-03-16T23:30:33.411Z,99155.69
2019-03-16T23:33:01.071Z,99153.23
2019-03-16T23:35:28.706Z,99149.39
2019-03-16T23:37:56.358Z,99144.38
2019-03-16T23:40:24.004Z,99143.27
2019-03-16T23:42:51.665Z,99143.27
2019-03-16T23:45:19.299Z,99131.41
2019-03-16T23:47:47.093Z,99134.72
2019-03-16T23:50:14.730Z,99134.15
2019-03-16T23:52:42.399Z,99132.29
2019-03-16T23:55:10.033Z,99135.94
2019-03-16T23:57:37.685Z,99129.82
